EDDR/SCN METAR and TAF weather

Enter ICAO airport designator
Station Type Date Time Source
EDDR METAR 2018/07/16 23:50 UTC NOAA

EDDR 162350Z AUTO VRB01KT 9999 // NCD 16/12 Q1014


Station Type Date Time Source
EDDR Decoded METAR 2018/07/16 23:50 UTC NOAA

Saarbruecken / Ensheim, Germany (EDDR) 49-13N 007-07E 320M
Jul 16, 2018 - 07:50 PM EDT / 2018.07.16 2350 UTC
Wind: Variable at 1 MPH (1 KT):0
Visibility: greater than 7 mile(s):0
Temperature: 60 F (16 C)
Dew Point: 53 F (12 C)
Relative Humidity: 77%
Pressure (altimeter): 29.94 in. Hg (1014 hPa)
ob: EDDR 162350Z AUTO VRB01KT 9999 // NCD 16/12 Q1014
cycle: 0

Station Type Date Time Source
EDDR TAF 2018/07/16 18:27 UTC NOAA

TAF EDDR 161700Z 1618/1718 03004KT CAVOK
BECMG 1706/1709 27008KT


Example: see airport list